sensor_id;sensor_type;location;lat;lon;timestamp;temperature;humidity
12602;DHT22;30282;16.436;99.370;2023-04-07T00:01:08;26.80;99.90
12602;DHT22;30282;16.436;99.370;2023-04-07T00:03:38;26.70;99.90
12602;DHT22;30282;16.436;99.370;2023-04-07T00:06:08;26.70;99.90
12602;DHT22;30282;16.436;99.370;2023-04-07T00:08:38;26.80;99.90
12602;DHT22;30282;16.436;99.370;2023-04-07T00:11:07;26.90;99.90
12602;DHT22;30282;16.436;99.370;2023-04-07T00:13:36;26.90;99.90
12602;DHT22;30282;16.436;99.370;2023-04-07T00:16:07;27.10;99.90
12602;DHT22;30282;16.436;99.370;2023-04-07T00:18:36;27.10;99.90
12602;DHT22;30282;16.436;99.370;2023-04-07T00:21:06;27.20;99.90
12602;DHT22;30282;16.436;99.370;2023-04-07T00:23:35;27.20;99.90
12602;DHT22;30282;16.436;99.370;2023-04-07T00:26:04;27.20;99.90
12602;DHT22;30282;16.436;99.370;2023-04-07T00:28:33;27.20;99.90
12602;DHT22;30282;16.436;99.370;2023-04-07T00:31:02;27.20;99.90
12602;DHT22;30282;16.436;99.370;2023-04-07T00:33:33;27.30;99.90
12602;DHT22;30282;16.436;99.370;2023-04-07T00:36:03;27.30;99.90
12602;DHT22;30282;16.436;99.370;2023-04-07T00:38:32;27.30;99.90
12602;DHT22;30282;16.436;99.370;2023-04-07T00:41:01;27.40;99.90
12602;DHT22;30282;16.436;99.370;2023-04-07T00:43:30;27.40;99.90
12602;DHT22;30282;16.436;99.370;2023-04-07T00:45:59;27.40;99.90
12602;DHT22;30282;16.436;99.370;2023-04-07T00:48:29;27.40;99.90
12602;DHT22;30282;16.436;99.370;2023-04-07T00:51:00;27.40;99.90
12602;DHT22;30282;16.436;99.370;2023-04-07T00:53:30;27.30;99.90
12602;DHT22;30282;16.436;99.370;2023-04-07T00:55:59;27.40;99.90
12602;DHT22;30282;16.436;99.370;2023-04-07T00:58:28;27.60;99.90
12602;DHT22;30282;16.436;99.370;2023-04-07T01:01:02;27.70;99.90
12602;DHT22;30282;16.436;99.370;2023-04-07T01:03:38;27.70;99.90
12602;DHT22;30282;16.436;99.370;2023-04-07T01:06:14;27.80;99.90
12602;DHT22;30282;16.436;99.370;2023-04-07T01:08:52;27.90;99.90
12602;DHT22;30282;16.436;99.370;2023-04-07T01:11:27;28.00;99.90
12602;DHT22;30282;16.436;99.370;2023-04-07T01:13:59;28.10;99.90
12602;DHT22;30282;16.436;99.370;2023-04-07T01:16:31;28.20;99.90
12602;DHT22;30282;16.436;99.370;2023-04-07T01:19:11;28.20;99.90
12602;DHT22;30282;16.436;99.370;2023-04-07T01:21:43;28.30;99.90
12602;DHT22;30282;16.436;99.370;2023-04-07T01:24:32;28.40;99.90
12602;DHT22;30282;16.436;99.370;2023-04-07T01:27:13;28.40;99.90
12602;DHT22;30282;16.436;99.370;2023-04-07T01:29:45;28.50;99.90
12602;DHT22;30282;16.436;99.370;2023-04-07T01:32:17;28.50;99.90
12602;DHT22;30282;16.436;99.370;2023-04-07T01:34:48;28.50;99.90
12602;DHT22;30282;16.436;99.370;2023-04-07T01:37:19;28.50;99.90
12602;DHT22;30282;16.436;99.370;2023-04-07T01:39:48;28.60;99.90
12602;DHT22;30282;16.436;99.370;2023-04-07T01:42:18;28.70;99.90
12602;DHT22;30282;16.436;99.370;2023-04-07T01:44:50;28.80;99.90
12602;DHT22;30282;16.436;99.370;2023-04-07T01:47:20;29.00;99.90
12602;DHT22;30282;16.436;99.370;2023-04-07T01:49:49;29.10;99.90
12602;DHT22;30282;16.436;99.370;2023-04-07T01:52:19;29.20;99.90
12602;DHT22;30282;16.436;99.370;2023-04-07T01:54:49;29.30;99.90
12602;DHT22;30282;16.436;99.370;2023-04-07T01:57:18;29.40;99.90
12602;DHT22;30282;16.436;99.370;2023-04-07T01:59:49;29.50;99.90
12602;DHT22;30282;16.436;99.370;2023-04-07T02:02:18;29.60;99.90
12602;DHT22;30282;16.436;99.370;2023-04-07T02:04:51;29.70;99.90
12602;DHT22;30282;16.436;99.370;2023-04-07T02:07:30;29.80;99.90
12602;DHT22;30282;16.436;99.370;2023-04-07T02:10:02;29.90;99.90
12602;DHT22;30282;16.436;99.370;2023-04-07T02:12:35;30.00;99.90
12602;DHT22;30282;16.436;99.370;2023-04-07T02:15:08;30.10;99.90
12602;DHT22;30282;16.436;99.370;2023-04-07T02:17:40;30.20;99.90
12602;DHT22;30282;16.436;99.370;2023-04-07T02:20:11;30.30;99.90
12602;DHT22;30282;16.436;99.370;2023-04-07T02:22:40;30.40;99.90
12602;DHT22;30282;16.436;99.370;2023-04-07T02:25:23;30.50;99.90
12602;DHT22;30282;16.436;99.370;2023-04-07T02:27:56;30.60;99.90
12602;DHT22;30282;16.436;99.370;2023-04-07T02:30:27;30.70;99.90
12602;DHT22;30282;16.436;99.370;2023-04-07T02:32:57;30.80;99.90
12602;DHT22;30282;16.436;99.370;2023-04-07T02:35:26;30.90;99.90
12602;DHT22;30282;16.436;99.370;2023-04-07T02:37:55;31.00;99.90
12602;DHT22;30282;16.436;99.370;2023-04-07T02:40:24;31.00;99.90
12602;DHT22;30282;16.436;99.370;2023-04-07T02:42:53;31.00;99.90
12602;DHT22;30282;16.436;99.370;2023-04-07T02:45:23;31.10;99.90
12602;DHT22;30282;16.436;99.370;2023-04-07T02:47:54;31.10;99.90
12602;DHT22;30282;16.436;99.370;2023-04-07T02:50:23;31.30;99.90
12602;DHT22;30282;16.436;99.370;2023-04-07T02:52:52;31.40;99.90
12602;DHT22;30282;16.436;99.370;2023-04-07T02:55:24;31.50;99.90
12602;DHT22;30282;16.436;99.370;2023-04-07T02:57:53;31.60;99.90
12602;DHT22;30282;16.436;99.370;2023-04-07T03:00:23;31.70;99.90
12602;DHT22;30282;16.436;99.370;2023-04-07T03:02:53;31.70;99.90
12602;DHT22;30282;16.436;99.370;2023-04-07T03:05:23;31.70;99.90
12602;DHT22;30282;16.436;99.370;2023-04-07T03:07:52;31.80;99.90
12602;DHT22;30282;16.436;99.370;2023-04-07T03:10:21;31.90;99.90
12602;DHT22;30282;16.436;99.370;2023-04-07T03:12:50;32.00;99.90
12602;DHT22;30282;16.436;99.370;2023-04-07T03:15:19;32.10;99.90
12602;DHT22;30282;16.436;99.370;2023-04-07T03:17:49;32.20;99.90
12602;DHT22;30282;16.436;99.370;2023-04-07T03:20:20;32.20;99.90
12602;DHT22;30282;16.436;99.370;2023-04-07T03:22:49;32.30;99.90
12602;DHT22;30282;16.436;99.370;2023-04-07T03:25:18;32.40;99.90
12602;DHT22;30282;16.436;99.370;2023-04-07T03:27:47;32.50;99.90
12602;DHT22;30282;16.436;99.370;2023-04-07T03:30:16;32.50;99.90
12602;DHT22;30282;16.436;99.370;2023-04-07T03:32:45;32.60;99.90
12602;DHT22;30282;16.436;99.370;2023-04-07T03:35:14;32.70;99.90
12602;DHT22;30282;16.436;99.370;2023-04-07T03:37:45;32.80;99.90
12602;DHT22;30282;16.436;99.370;2023-04-07T03:40:15;32.90;99.90
12602;DHT22;30282;16.436;99.370;2023-04-07T03:42:45;33.00;99.90
12602;DHT22;30282;16.436;99.370;2023-04-07T03:45:14;33.10;99.90
12602;DHT22;30282;16.436;99.370;2023-04-07T03:47:44;33.20;99.90
12602;DHT22;30282;16.436;99.370;2023-04-07T03:50:13;33.30;99.90
12602;DHT22;30282;16.436;99.370;2023-04-07T03:52:42;33.30;99.90
12602;DHT22;30282;16.436;99.370;2023-04-07T03:55:12;33.50;99.90
12602;DHT22;30282;16.436;99.370;2023-04-07T03:57:42;33.70;99.90
12602;DHT22;30282;16.436;99.370;2023-04-07T04:00:12;33.70;99.90
12602;DHT22;30282;16.436;99.370;2023-04-07T04:02:41;33.90;99.90
12602;DHT22;30282;16.436;99.370;2023-04-07T04:05:10;33.90;99.90
12602;DHT22;30282;16.436;99.370;2023-04-07T04:07:39;34.00;99.90
12602;DHT22;30282;16.436;99.370;2023-04-07T04:10:09;34.10;99.90
12602;DHT22;30282;16.436;99.370;2023-04-07T04:12:40;34.10;99.90
12602;DHT22;30282;16.436;99.370;2023-04-07T04:15:09;34.20;99.90
12602;DHT22;30282;16.436;99.370;2023-04-07T04:17:39;34.30;99.90
12602;DHT22;30282;16.436;99.370;2023-04-07T04:20:08;34.40;99.90
12602;DHT22;30282;16.436;99.370;2023-04-07T04:22:38;34.50;99.90
12602;DHT22;30282;16.436;99.370;2023-04-07T04:25:07;34.60;99.90
12602;DHT22;30282;16.436;99.370;2023-04-07T04:27:38;34.70;99.90
12602;DHT22;30282;16.436;99.370;2023-04-07T04:30:08;34.70;99.90
12602;DHT22;30282;16.436;99.370;2023-04-07T04:32:37;34.70;99.90
12602;DHT22;30282;16.436;99.370;2023-04-07T04:35:07;34.80;99.90
12602;DHT22;30282;16.436;99.370;2023-04-07T04:37:36;34.90;99.90
12602;DHT22;30282;16.436;99.370;2023-04-07T04:40:06;35.00;99.90
12602;DHT22;30282;16.436;99.370;2023-04-07T04:42:36;35.00;99.90
12602;DHT22;30282;16.436;99.370;2023-04-07T04:45:07;34.90;99.90
12602;DHT22;30282;16.436;99.370;2023-04-07T04:47:36;35.00;99.90
12602;DHT22;30282;16.436;99.370;2023-04-07T04:50:07;35.10;99.90
12602;DHT22;30282;16.436;99.370;2023-04-07T04:52:36;35.10;99.90
12602;DHT22;30282;16.436;99.370;2023-04-07T04:55:06;35.30;99.90
12602;DHT22;30282;16.436;99.370;2023-04-07T04:57:35;35.40;99.90
12602;DHT22;30282;16.436;99.370;2023-04-07T05:00:08;35.50;99.90
12602;DHT22;30282;16.436;99.370;2023-04-07T05:02:37;35.60;99.90
12602;DHT22;30282;16.436;99.370;2023-04-07T05:05:07;35.70;99.90
12602;DHT22;30282;16.436;99.370;2023-04-07T05:07:36;35.70;99.90
12602;DHT22;30282;16.436;99.370;2023-04-07T05:10:08;35.80;99.90
12602;DHT22;30282;16.436;99.370;2023-04-07T05:12:37;35.80;99.90
12602;DHT22;30282;16.436;99.370;2023-04-07T05:15:09;35.90;99.90
12602;DHT22;30282;16.436;99.370;2023-04-07T05:17:38;35.90;99.90
12602;DHT22;30282;16.436;99.370;2023-04-07T05:20:09;35.90;99.90
12602;DHT22;30282;16.436;99.370;2023-04-07T05:22:38;36.00;99.90
12602;DHT22;30282;16.436;99.370;2023-04-07T05:25:08;36.20;99.90
12602;DHT22;30282;16.436;99.370;2023-04-07T05:27:37;36.20;99.90
12602;DHT22;30282;16.436;99.370;2023-04-07T05:30:09;36.30;99.90
12602;DHT22;30282;16.436;99.370;2023-04-07T05:32:38;36.30;99.90
12602;DHT22;30282;16.436;99.370;2023-04-07T05:35:08;36.30;99.90
12602;DHT22;30282;16.436;99.370;2023-04-07T05:37:37;36.30;99.90
12602;DHT22;30282;16.436;99.370;2023-04-07T05:40:08;36.40;99.90
12602;DHT22;30282;16.436;99.370;2023-04-07T05:42:40;36.40;99.90
12602;DHT22;30282;16.436;99.370;2023-04-07T05:45:11;36.50;99.90
12602;DHT22;30282;16.436;99.370;2023-04-07T05:47:40;36.60;99.90
12602;DHT22;30282;16.436;99.370;2023-04-07T05:50:10;36.60;99.90
12602;DHT22;30282;16.436;99.370;2023-04-07T05:52:40;36.70;99.90
12602;DHT22;30282;16.436;99.370;2023-04-07T05:55:09;36.70;99.90
12602;DHT22;30282;16.436;99.370;2023-04-07T05:57:38;36.60;99.90
12602;DHT22;30282;16.436;99.370;2023-04-07T06:00:10;36.60;99.90
12602;DHT22;30282;16.436;99.370;2023-04-07T06:02:39;36.80;99.90
12602;DHT22;30282;16.436;99.370;2023-04-07T06:05:09;36.80;99.90
12602;DHT22;30282;16.436;99.370;2023-04-07T06:07:38;36.90;99.90
12602;DHT22;30282;16.436;99.370;2023-04-07T06:10:08;36.90;99.90
12602;DHT22;30282;16.436;99.370;2023-04-07T06:12:37;37.00;99.90
12602;DHT22;30282;16.436;99.370;2023-04-07T06:15:07;37.10;99.90
12602;DHT22;30282;16.436;99.370;2023-04-07T06:17:37;37.10;99.90
12602;DHT22;30282;16.436;99.370;2023-04-07T06:20:07;37.20;99.90
12602;DHT22;30282;16.436;99.370;2023-04-07T06:22:37;37.30;99.90
12602;DHT22;30282;16.436;99.370;2023-04-07T06:25:06;37.30;99.90
12602;DHT22;30282;16.436;99.370;2023-04-07T06:27:36;37.40;99.90
12602;DHT22;30282;16.436;99.370;2023-04-07T06:30:08;37.40;99.90
12602;DHT22;30282;16.436;99.370;2023-04-07T06:32:39;37.50;99.90
12602;DHT22;30282;16.436;99.370;2023-04-07T06:35:08;37.50;99.90
12602;DHT22;30282;16.436;99.370;2023-04-07T06:37:40;37.60;99.90
12602;DHT22;30282;16.436;99.370;2023-04-07T06:40:09;37.60;99.90
12602;DHT22;30282;16.436;99.370;2023-04-07T06:42:39;37.70;99.90
12602;DHT22;30282;16.436;99.370;2023-04-07T06:45:09;37.80;99.90
12602;DHT22;30282;16.436;99.370;2023-04-07T06:47:39;37.80;99.90
12602;DHT22;30282;16.436;99.370;2023-04-07T06:50:09;37.80;99.90
12602;DHT22;30282;16.436;99.370;2023-04-07T06:52:38;37.90;99.90
12602;DHT22;30282;16.436;99.370;2023-04-07T06:55:08;38.00;99.90
12602;DHT22;30282;16.436;99.370;2023-04-07T06:57:37;38.00;99.90
12602;DHT22;30282;16.436;99.370;2023-04-07T07:00:07;38.00;99.90
12602;DHT22;30282;16.436;99.370;2023-04-07T07:02:39;38.00;99.90
12602;DHT22;30282;16.436;99.370;2023-04-07T07:05:08;38.10;99.90
12602;DHT22;30282;16.436;99.370;2023-04-07T07:07:37;38.10;99.90
12602;DHT22;30282;16.436;99.370;2023-04-07T07:10:08;38.30;99.90
12602;DHT22;30282;16.436;99.370;2023-04-07T07:12:37;38.30;99.90
12602;DHT22;30282;16.436;99.370;2023-04-07T07:15:07;38.30;99.90
12602;DHT22;30282;16.436;99.370;2023-04-07T07:17:38;38.30;99.90
12602;DHT22;30282;16.436;99.370;2023-04-07T07:20:08;38.30;99.90
12602;DHT22;30282;16.436;99.370;2023-04-07T07:22:38;38.30;99.90
12602;DHT22;30282;16.436;99.370;2023-04-07T07:25:07;38.30;99.90
12602;DHT22;30282;16.436;99.370;2023-04-07T07:27:36;38.40;99.90
12602;DHT22;30282;16.436;99.370;2023-04-07T07:30:06;38.30;99.90
12602;DHT22;30282;16.436;99.370;2023-04-07T07:32:36;38.30;99.90
12602;DHT22;30282;16.436;99.370;2023-04-07T07:35:07;38.30;99.90
12602;DHT22;30282;16.436;99.370;2023-04-07T07:37:36;38.40;99.90
12602;DHT22;30282;16.436;99.370;2023-04-07T07:40:06;38.40;99.90
12602;DHT22;30282;16.436;99.370;2023-04-07T07:42:35;38.40;99.90
12602;DHT22;30282;16.436;99.370;2023-04-07T07:45:05;38.30;99.90
12602;DHT22;30282;16.436;99.370;2023-04-07T07:47:34;38.20;99.90
12602;DHT22;30282;16.436;99.370;2023-04-07T07:50:06;38.20;99.90
12602;DHT22;30282;16.436;99.370;2023-04-07T07:52:35;38.10;99.90
12602;DHT22;30282;16.436;99.370;2023-04-07T07:55:05;38.00;99.90
12602;DHT22;30282;16.436;99.370;2023-04-07T07:57:34;38.00;99.90
12602;DHT22;30282;16.436;99.370;2023-04-07T08:00:04;37.90;99.90
12602;DHT22;30282;16.436;99.370;2023-04-07T08:02:33;38.00;99.90
12602;DHT22;30282;16.436;99.370;2023-04-07T08:05:05;38.00;99.90
12602;DHT22;30282;16.436;99.370;2023-04-07T08:07:36;38.10;99.90
12602;DHT22;30282;16.436;99.370;2023-04-07T08:10:06;38.10;99.90
12602;DHT22;30282;16.436;99.370;2023-04-07T08:12:35;38.10;99.90
12602;DHT22;30282;16.436;99.370;2023-04-07T08:15:05;38.10;99.90
12602;DHT22;30282;16.436;99.370;2023-04-07T08:17:35;38.20;99.90
12602;DHT22;30282;16.436;99.370;2023-04-07T08:20:06;38.30;99.90
12602;DHT22;30282;16.436;99.370;2023-04-07T08:22:37;38.30;99.90
12602;DHT22;30282;16.436;99.370;2023-04-07T08:25:07;38.30;99.90
12602;DHT22;30282;16.436;99.370;2023-04-07T08:27:36;38.30;99.90
12602;DHT22;30282;16.436;99.370;2023-04-07T08:30:06;38.40;99.90
12602;DHT22;30282;16.436;99.370;2023-04-07T08:32:36;38.30;99.90
12602;DHT22;30282;16.436;99.370;2023-04-07T08:35:06;38.30;99.90
12602;DHT22;30282;16.436;99.370;2023-04-07T08:37:38;38.30;99.90
12602;DHT22;30282;16.436;99.370;2023-04-07T08:40:12;38.30;99.90
12602;DHT22;30282;16.436;99.370;2023-04-07T08:42:45;38.30;99.90
12602;DHT22;30282;16.436;99.370;2023-04-07T08:45:16;38.20;99.90
12602;DHT22;30282;16.436;99.370;2023-04-07T08:47:46;38.20;99.90
12602;DHT22;30282;16.436;99.370;2023-04-07T08:50:21;38.20;99.90
12602;DHT22;30282;16.436;99.370;2023-04-07T08:52:54;38.20;99.90
12602;DHT22;30282;16.436;99.370;2023-04-07T08:55:26;38.10;99.90
12602;DHT22;30282;16.436;99.370;2023-04-07T08:57:56;38.10;99.90
12602;DHT22;30282;16.436;99.370;2023-04-07T09:00:25;38.20;99.90
12602;DHT22;30282;16.436;99.370;2023-04-07T09:02:55;38.10;99.90
12602;DHT22;30282;16.436;99.370;2023-04-07T09:05:24;38.10;99.90
12602;DHT22;30282;16.436;99.370;2023-04-07T09:07:55;38.10;99.90
12602;DHT22;30282;16.436;99.370;2023-04-07T09:10:24;38.00;99.90
12602;DHT22;30282;16.436;99.370;2023-04-07T09:12:53;38.00;99.90
12602;DHT22;30282;16.436;99.370;2023-04-07T09:15:23;38.00;99.90
12602;DHT22;30282;16.436;99.370;2023-04-07T09:17:53;37.90;99.90
12602;DHT22;30282;16.436;99.370;2023-04-07T09:20:24;37.90;99.90
12602;DHT22;30282;16.436;99.370;2023-04-07T09:22:55;37.80;99.90
12602;DHT22;30282;16.436;99.370;2023-04-07T09:25:28;37.70;99.90
12602;DHT22;30282;16.436;99.370;2023-04-07T09:28:00;37.70;99.90
12602;DHT22;30282;16.436;99.370;2023-04-07T09:30:31;37.60;99.90
12602;DHT22;30282;16.436;99.370;2023-04-07T09:33:01;37.60;99.90
12602;DHT22;30282;16.436;99.370;2023-04-07T09:35:30;37.70;99.90
12602;DHT22;30282;16.436;99.370;2023-04-07T09:38:05;37.60;99.90
12602;DHT22;30282;16.436;99.370;2023-04-07T09:40:35;37.60;99.90
12602;DHT22;30282;16.436;99.370;2023-04-07T09:43:05;37.50;99.90
12602;DHT22;30282;16.436;99.370;2023-04-07T09:45:34;37.50;99.90
12602;DHT22;30282;16.436;99.370;2023-04-07T09:48:05;37.40;99.90
12602;DHT22;30282;16.436;99.370;2023-04-07T09:50:35;37.40;99.90
12602;DHT22;30282;16.436;99.370;2023-04-07T09:53:06;37.30;99.90
12602;DHT22;30282;16.436;99.370;2023-04-07T09:55:36;37.30;99.90
12602;DHT22;30282;16.436;99.370;2023-04-07T09:58:07;37.30;99.90
12602;DHT22;30282;16.436;99.370;2023-04-07T10:00:40;37.20;99.90
12602;DHT22;30282;16.436;99.370;2023-04-07T10:03:09;37.10;99.90
12602;DHT22;30282;16.436;99.370;2023-04-07T10:05:39;37.00;99.90
12602;DHT22;30282;16.436;99.370;2023-04-07T10:08:10;37.00;99.90
12602;DHT22;30282;16.436;99.370;2023-04-07T10:10:41;36.90;99.90
12602;DHT22;30282;16.436;99.370;2023-04-07T10:13:11;36.80;99.90
12602;DHT22;30282;16.436;99.370;2023-04-07T10:15:41;36.80;99.90
12602;DHT22;30282;16.436;99.370;2023-04-07T10:18:10;36.80;99.90
12602;DHT22;30282;16.436;99.370;2023-04-07T10:20:40;36.80;99.90
12602;DHT22;30282;16.436;99.370;2023-04-07T10:23:17;36.70;99.90
12602;DHT22;30282;16.436;99.370;2023-04-07T10:25:49;36.70;99.90
12602;DHT22;30282;16.436;99.370;2023-04-07T10:28:21;36.60;99.90
12602;DHT22;30282;16.436;99.370;2023-04-07T10:30:51;36.50;99.90
12602;DHT22;30282;16.436;99.370;2023-04-07T10:33:44;36.50;99.90
12602;DHT22;30282;16.436;99.370;2023-04-07T10:36:14;36.50;99.90
12602;DHT22;30282;16.436;99.370;2023-04-07T10:41:54;36.40;99.90
12602;DHT22;30282;16.436;99.370;2023-04-07T10:44:45;36.30;99.90
12602;DHT22;30282;16.436;99.370;2023-04-07T10:47:15;36.10;99.90
12602;DHT22;30282;16.436;99.370;2023-04-07T10:50:16;36.10;99.90
12602;DHT22;30282;16.436;99.370;2023-04-07T10:52:48;36.00;99.90
12602;DHT22;30282;16.436;99.370;2023-04-07T10:55:36;36.00;99.90
12602;DHT22;30282;16.436;99.370;2023-04-07T10:58:22;35.90;99.90
12602;DHT22;30282;16.436;99.370;2023-04-07T11:01:18;35.80;99.90
12602;DHT22;30282;16.436;99.370;2023-04-07T11:03:55;35.70;99.90
12602;DHT22;30282;16.436;99.370;2023-04-07T11:06:28;35.70;99.90
12602;DHT22;30282;16.436;99.370;2023-04-07T11:08:57;35.60;99.90
12602;DHT22;30282;16.436;99.370;2023-04-07T11:11:39;35.60;99.90
12602;DHT22;30282;16.436;99.370;2023-04-07T11:14:08;35.50;99.90
12602;DHT22;30282;16.436;99.370;2023-04-07T11:16:39;35.50;99.90
12602;DHT22;30282;16.436;99.370;2023-04-07T11:19:09;35.50;99.90
12602;DHT22;30282;16.436;99.370;2023-04-07T11:21:38;35.50;99.90
12602;DHT22;30282;16.436;99.370;2023-04-07T11:24:07;35.40;99.90
12602;DHT22;30282;16.436;99.370;2023-04-07T11:26:45;35.40;99.90
12602;DHT22;30282;16.436;99.370;2023-04-07T11:29:27;35.30;99.90
12602;DHT22;30282;16.436;99.370;2023-04-07T11:31:58;35.30;99.90
12602;DHT22;30282;16.436;99.370;2023-04-07T11:34:29;35.20;99.90
12602;DHT22;30282;16.436;99.370;2023-04-07T11:37:18;35.20;99.90
12602;DHT22;30282;16.436;99.370;2023-04-07T11:39:52;35.20;99.90
12602;DHT22;30282;16.436;99.370;2023-04-07T11:42:33;35.20;99.90
12602;DHT22;30282;16.436;99.370;2023-04-07T11:45:03;35.20;99.90
12602;DHT22;30282;16.436;99.370;2023-04-07T11:47:35;35.10;99.90
12602;DHT22;30282;16.436;99.370;2023-04-07T11:50:06;35.20;99.90
12602;DHT22;30282;16.436;99.370;2023-04-07T11:52:41;35.20;99.90
12602;DHT22;30282;16.436;99.370;2023-04-07T11:55:20;35.20;99.90
12602;DHT22;30282;16.436;99.370;2023-04-07T11:57:52;35.10;99.90
12602;DHT22;30282;16.436;99.370;2023-04-07T12:00:21;35.10;99.90
12602;DHT22;30282;16.436;99.370;2023-04-07T12:02:53;35.00;99.90
12602;DHT22;30282;16.436;99.370;2023-04-07T12:05:23;35.00;99.90
12602;DHT22;30282;16.436;99.370;2023-04-07T12:07:53;34.90;99.90
12602;DHT22;30282;16.436;99.370;2023-04-07T12:10:24;34.80;99.90
12602;DHT22;30282;16.436;99.370;2023-04-07T12:12:55;34.80;99.90
12602;DHT22;30282;16.436;99.370;2023-04-07T12:15:24;34.80;99.90
12602;DHT22;30282;16.436;99.370;2023-04-07T12:17:57;34.80;99.90
12602;DHT22;30282;16.436;99.370;2023-04-07T12:20:35;34.90;99.90
12602;DHT22;30282;16.436;99.370;2023-04-07T12:23:07;34.90;99.90
12602;DHT22;30282;16.436;99.370;2023-04-07T12:25:36;34.80;99.90
12602;DHT22;30282;16.436;99.370;2023-04-07T12:28:07;34.90;99.90
12602;DHT22;30282;16.436;99.370;2023-04-07T12:30:39;34.90;99.90
12602;DHT22;30282;16.436;99.370;2023-04-07T12:33:11;34.80;99.90
12602;DHT22;30282;16.436;99.370;2023-04-07T12:35:40;34.80;99.90
12602;DHT22;30282;16.436;99.370;2023-04-07T12:38:09;34.70;99.90
12602;DHT22;30282;16.436;99.370;2023-04-07T12:40:38;34.80;99.90
12602;DHT22;30282;16.436;99.370;2023-04-07T12:43:09;34.70;99.90
12602;DHT22;30282;16.436;99.370;2023-04-07T12:45:39;34.70;99.90
12602;DHT22;30282;16.436;99.370;2023-04-07T12:48:08;34.70;99.90
12602;DHT22;30282;16.436;99.370;2023-04-07T12:50:37;34.60;99.90
12602;DHT22;30282;16.436;99.370;2023-04-07T12:53:07;34.60;99.90
12602;DHT22;30282;16.436;99.370;2023-04-07T12:55:36;34.70;99.90
12602;DHT22;30282;16.436;99.370;2023-04-07T12:58:06;34.60;99.90
12602;DHT22;30282;16.436;99.370;2023-04-07T13:00:37;34.50;99.90
12602;DHT22;30282;16.436;99.370;2023-04-07T13:03:10;34.50;99.90
12602;DHT22;30282;16.436;99.370;2023-04-07T13:05:39;34.40;99.90
12602;DHT22;30282;16.436;99.370;2023-04-07T13:08:08;34.40;99.90
12602;DHT22;30282;16.436;99.370;2023-04-07T13:10:37;34.30;99.90
12602;DHT22;30282;16.436;99.370;2023-04-07T13:13:09;34.30;99.90
12602;DHT22;30282;16.436;99.370;2023-04-07T13:15:40;34.30;99.90
12602;DHT22;30282;16.436;99.370;2023-04-07T13:18:09;34.20;99.90
12602;DHT22;30282;16.436;99.370;2023-04-07T13:20:38;34.20;99.90
12602;DHT22;30282;16.436;99.370;2023-04-07T13:23:07;34.20;99.90
12602;DHT22;30282;16.436;99.370;2023-04-07T13:25:37;34.20;99.90
12602;DHT22;30282;16.436;99.370;2023-04-07T13:28:06;34.10;99.90
12602;DHT22;30282;16.436;99.370;2023-04-07T13:30:35;34.00;99.90
12602;DHT22;30282;16.436;99.370;2023-04-07T13:33:06;34.00;99.90
12602;DHT22;30282;16.436;99.370;2023-04-07T13:35:40;34.00;99.90
12602;DHT22;30282;16.436;99.370;2023-04-07T13:38:10;33.90;99.90
12602;DHT22;30282;16.436;99.370;2023-04-07T13:40:41;33.90;99.90
12602;DHT22;30282;16.436;99.370;2023-04-07T13:43:16;33.90;99.90
12602;DHT22;30282;16.436;99.370;2023-04-07T13:45:45;33.80;99.90
12602;DHT22;30282;16.436;99.370;2023-04-07T13:48:16;33.70;99.90
12602;DHT22;30282;16.436;99.370;2023-04-07T13:50:47;33.70;99.90
12602;DHT22;30282;16.436;99.370;2023-04-07T13:53:16;33.60;99.90
12602;DHT22;30282;16.436;99.370;2023-04-07T13:55:49;33.60;99.90
12602;DHT22;30282;16.436;99.370;2023-04-07T13:58:23;33.60;99.90
12602;DHT22;30282;16.436;99.370;2023-04-07T14:00:53;33.60;99.90
12602;DHT22;30282;16.436;99.370;2023-04-07T14:03:23;33.60;99.90
12602;DHT22;30282;16.436;99.370;2023-04-07T14:05:53;33.50;99.90
12602;DHT22;30282;16.436;99.370;2023-04-07T14:08:26;33.40;99.90
12602;DHT22;30282;16.436;99.370;2023-04-07T14:10:57;33.40;99.90
12602;DHT22;30282;16.436;99.370;2023-04-07T14:13:32;33.30;99.90
12602;DHT22;30282;16.436;99.370;2023-04-07T14:16:02;33.30;99.90
12602;DHT22;30282;16.436;99.370;2023-04-07T14:18:38;33.30;99.90
12602;DHT22;30282;16.436;99.370;2023-04-07T14:21:07;33.30;99.90
12602;DHT22;30282;16.436;99.370;2023-04-07T14:23:43;33.30;99.90
12602;DHT22;30282;16.436;99.370;2023-04-07T14:26:14;33.30;99.90
12602;DHT22;30282;16.436;99.370;2023-04-07T14:28:44;33.30;99.90
12602;DHT22;30282;16.436;99.370;2023-04-07T14:31:13;33.30;99.90
12602;DHT22;30282;16.436;99.370;2023-04-07T14:33:49;33.20;99.90
12602;DHT22;30282;16.436;99.370;2023-04-07T14:36:18;33.30;99.90
12602;DHT22;30282;16.436;99.370;2023-04-07T14:38:50;33.10;99.90
12602;DHT22;30282;16.436;99.370;2023-04-07T14:41:23;33.10;99.90
12602;DHT22;30282;16.436;99.370;2023-04-07T14:43:52;33.10;99.90
12602;DHT22;30282;16.436;99.370;2023-04-07T14:46:22;33.10;99.90
12602;DHT22;30282;16.436;99.370;2023-04-07T14:48:54;32.90;99.90
12602;DHT22;30282;16.436;99.370;2023-04-07T14:51:23;32.90;99.90
12602;DHT22;30282;16.436;99.370;2023-04-07T14:53:53;32.90;99.90
12602;DHT22;30282;16.436;99.370;2023-04-07T14:56:23;32.80;99.90
12602;DHT22;30282;16.436;99.370;2023-04-07T14:58:52;32.90;99.90
12602;DHT22;30282;16.436;99.370;2023-04-07T15:01:21;32.80;99.90
12602;DHT22;30282;16.436;99.370;2023-04-07T15:03:54;32.70;99.90
12602;DHT22;30282;16.436;99.370;2023-04-07T15:06:24;32.70;99.90
12602;DHT22;30282;16.436;99.370;2023-04-07T15:08:53;32.70;99.90
12602;DHT22;30282;16.436;99.370;2023-04-07T15:11:25;32.80;99.90
12602;DHT22;30282;16.436;99.370;2023-04-07T15:13:54;32.70;99.90
12602;DHT22;30282;16.436;99.370;2023-04-07T15:16:23;32.70;99.90
12602;DHT22;30282;16.436;99.370;2023-04-07T15:18:54;32.70;99.90
12602;DHT22;30282;16.436;99.370;2023-04-07T15:21:26;32.70;99.90
12602;DHT22;30282;16.436;99.370;2023-04-07T15:23:55;32.60;99.90
12602;DHT22;30282;16.436;99.370;2023-04-07T15:26:24;32.60;99.90
12602;DHT22;30282;16.436;99.370;2023-04-07T15:28:56;32.60;99.90
12602;DHT22;30282;16.436;99.370;2023-04-07T15:31:26;32.60;99.90
12602;DHT22;30282;16.436;99.370;2023-04-07T15:33:57;32.50;99.90
12602;DHT22;30282;16.436;99.370;2023-04-07T15:36:26;32.60;99.90
12602;DHT22;30282;16.436;99.370;2023-04-07T15:38:55;32.50;99.90
12602;DHT22;30282;16.436;99.370;2023-04-07T15:41:24;32.50;99.90